createdAt,value
2024-02-20T00:01:25.993Z,73.55
2024-02-20T00:06:20.486Z,76.47
2024-02-20T00:11:14.738Z,77.95
2024-02-20T00:16:08.451Z,81.88
2024-02-20T00:21:02.473Z,78.55
2024-02-20T00:25:57.006Z,84.50
2024-02-20T00:30:52.611Z,89.15
2024-02-20T00:35:46.390Z,90.05
2024-02-20T00:40:41.798Z,90.03
2024-02-20T00:45:36.390Z,88.32
2024-02-20T00:50:30.541Z,86.55
2024-02-20T00:55:25.009Z,87.88
2024-02-20T01:00:19.620Z,88.18
2024-02-20T01:05:14.056Z,83.85
2024-02-20T01:10:09.062Z,84.55
2024-02-20T01:15:03.845Z,78.32
2024-02-20T01:19:58.498Z,80.40
2024-02-20T01:24:51.925Z,86.53
2024-02-20T01:29:48.307Z,83.97
2024-02-20T01:34:42.821Z,78.18
2024-02-20T01:39:37.434Z,84.45
2024-02-20T01:44:33.989Z,77.22
2024-02-20T01:49:28.904Z,79.80
2024-02-20T01:54:24.048Z,79.22
2024-02-20T01:59:18.518Z,79.55
2024-02-20T02:04:12.505Z,87.50
2024-02-20T02:09:06.533Z,83.78
2024-02-20T02:14:00.661Z,79.15
2024-02-20T02:18:54.663Z,87.35
2024-02-20T02:23:47.579Z,87.38
2024-02-20T02:28:41.989Z,87.47
2024-02-20T02:33:36.064Z,87.97
2024-02-20T02:38:30.404Z,91.63
2024-02-20T02:43:24.608Z,85.35
2024-02-20T02:48:18.691Z,90.63
2024-02-20T02:53:12.926Z,88.28
2024-02-20T02:58:07.974Z,85.97
2024-02-20T03:03:01.543Z,84.30
2024-02-20T03:07:56.284Z,87.22
2024-02-20T03:12:50.815Z,79.97
2024-02-20T03:17:47.771Z,74.35
2024-02-20T03:22:42.419Z,79.97
2024-02-20T03:27:38.290Z,81.03
2024-02-20T03:32:33.109Z,81.10
2024-02-20T03:37:27.627Z,75.85
2024-02-20T03:42:21.222Z,79.63
2024-02-20T03:47:15.705Z,83.65
2024-02-20T03:52:09.899Z,79.60
2024-02-20T03:57:05.314Z,76.88
2024-02-20T04:01:59.323Z,78.93
2024-02-20T04:06:55.014Z,78.88
2024-02-20T04:11:49.220Z,81.18
2024-02-20T04:16:42.741Z,83.55
2024-02-20T04:21:37.400Z,78.82
2024-02-20T04:26:31.549Z,74.57
2024-02-20T04:31:25.905Z,81.35
2024-02-20T04:36:21.587Z,78.57
2024-02-20T04:41:26.598Z,79.70
2024-02-20T04:46:21.121Z,80.93
2024-02-20T04:51:16.485Z,89.38
2024-02-20T04:56:10.857Z,83.78
2024-02-20T05:01:05.529Z,87.85
2024-02-20T05:06:00.196Z,89.53
2024-02-20T05:10:53.692Z,71.68
2024-02-20T05:15:48.141Z,80.70
2024-02-20T05:20:42.557Z,82.05
2024-02-20T05:25:37.109Z,74.80
2024-02-20T05:30:30.503Z,73.85
2024-02-20T05:35:24.515Z,77.70
2024-02-20T05:40:18.377Z,136.00
2024-02-20T05:45:13.676Z,77.70
2024-02-20T05:50:09.533Z,86.70
2024-02-20T05:55:03.342Z,90.53
2024-02-20T05:59:58.287Z,83.50
2024-02-20T06:04:52.274Z,77.88
2024-02-20T06:09:46.291Z,80.82
2024-02-20T06:14:50.722Z,72.53
2024-02-20T06:19:46.271Z,78.55
2024-02-20T06:24:40.464Z,81.90
2024-02-20T06:29:34.295Z,114.32
2024-02-20T06:34:28.467Z,78.18
2024-02-20T06:39:24.050Z,80.13
2024-02-20T06:44:18.088Z,77.50
2024-02-20T06:49:12.480Z,76.05
2024-02-20T06:54:07.258Z,81.32
2024-02-20T06:59:01.318Z,76.22
2024-02-20T07:03:56.067Z,91.75
2024-02-20T07:08:50.570Z,76.30
2024-02-20T07:13:45.923Z,72.00
2024-02-20T07:18:39.937Z,61.72
2024-02-20T07:23:33.456Z,74.07
2024-02-20T07:28:28.043Z,75.00
2024-02-20T07:33:31.079Z,79.82
2024-02-20T07:38:31.274Z,70.33
2024-02-20T07:43:25.872Z,72.75
2024-02-20T07:48:20.231Z,72.63
2024-02-20T07:53:14.648Z,75.15
2024-02-20T07:58:09.067Z,78.13
2024-02-20T08:03:03.646Z,70.07
2024-02-20T08:07:57.299Z,65.45
2024-02-20T08:12:51.724Z,57.15
2024-02-20T08:17:46.918Z,56.92
2024-02-20T08:22:42.556Z,54.45
2024-02-20T08:27:37.308Z,58.22
2024-02-20T08:32:31.318Z,64.00
2024-02-20T08:37:25.406Z,61.90
2024-02-20T08:42:20.689Z,61.83
2024-02-20T08:47:15.286Z,51.08
2024-02-20T08:52:12.143Z,49.80
2024-02-20T08:57:06.082Z,50.22
2024-02-20T09:02:00.362Z,49.72
2024-02-20T09:06:54.482Z,49.13
2024-02-20T09:11:48.867Z,60.33
2024-02-20T09:16:43.465Z,63.33
2024-02-20T09:21:37.619Z,63.38
2024-02-20T09:26:32.813Z,65.95
2024-02-20T09:31:25.810Z,68.03
2024-02-20T09:36:18.990Z,67.68
2024-02-20T09:41:12.788Z,67.00
2024-02-20T09:46:09.583Z,67.35
2024-02-20T09:51:04.949Z,63.35
2024-02-20T09:55:59.366Z,60.88
2024-02-20T10:00:57.794Z,58.05
2024-02-20T10:05:54.884Z,56.33
2024-02-20T10:10:48.977Z,62.92
2024-02-20T10:15:42.872Z,60.58
2024-02-20T10:20:37.141Z,59.22
2024-02-20T10:25:31.766Z,60.97
2024-02-20T10:30:29.346Z,62.38
2024-02-20T10:35:25.290Z,68.30
2024-02-20T10:40:27.655Z,66.75
2024-02-20T10:45:27.057Z,66.47
2024-02-20T10:50:24.639Z,70.38
2024-02-20T10:55:27.628Z,66.30
2024-02-20T11:00:26.950Z,66.27
2024-02-20T11:05:21.089Z,61.33
2024-02-20T11:10:25.837Z,56.55
2024-02-20T11:15:28.427Z,56.00
2024-02-20T11:20:25.530Z,56.17
2024-02-20T11:25:25.244Z,54.27
2024-02-20T11:30:21.022Z,56.90
2024-02-20T11:35:43.357Z,58.30
2024-02-20T11:40:37.371Z,62.75
2024-02-20T11:45:31.892Z,58.67
2024-02-20T11:50:30.307Z,62.97
2024-02-20T11:55:24.028Z,63.53
2024-02-20T12:00:19.154Z,62.30
2024-02-20T12:05:22.302Z,57.20
2024-02-20T12:10:20.145Z,59.92
2024-02-20T12:20:11.660Z,56.30
2024-02-20T12:30:05.593Z,65.17
2024-02-20T12:34:59.776Z,62.58
2024-02-20T12:39:53.978Z,61.63
2024-02-20T12:44:48.720Z,62.92
2024-02-20T12:49:42.299Z,60.92
2024-02-20T12:54:36.604Z,57.58
2024-02-20T12:59:31.234Z,58.22
2024-02-20T13:04:25.361Z,54.20
2024-02-20T13:09:20.701Z,52.90
2024-02-20T13:14:14.970Z,55.13
2024-02-20T13:19:09.187Z,51.35
2024-02-20T13:24:03.615Z,53.67
2024-02-20T13:28:57.932Z,51.00
2024-02-20T13:33:52.237Z,47.25
2024-02-20T13:38:46.678Z,41.72
2024-02-20T13:43:43.118Z,40.00
2024-02-20T13:48:37.579Z,41.60
2024-02-20T13:53:31.642Z,44.58
2024-02-20T13:58:27.594Z,42.78
2024-02-20T14:03:22.069Z,40.10
2024-02-20T14:08:15.111Z,40.63
2024-02-20T14:13:10.334Z,36.38
2024-02-20T14:18:04.038Z,36.88
2024-02-20T14:22:58.748Z,39.15
2024-02-20T14:27:52.885Z,44.20
2024-02-20T14:32:48.939Z,37.85
2024-02-20T14:37:42.852Z,39.25
2024-02-20T14:42:36.903Z,38.47
2024-02-20T14:47:32.974Z,36.85
2024-02-20T14:52:27.530Z,35.33
2024-02-20T14:57:24.294Z,35.90
2024-02-20T15:02:18.423Z,34.80
2024-02-20T15:07:16.156Z,37.58
2024-02-20T15:12:20.780Z,38.15
2024-02-20T15:17:14.424Z,36.72
2024-02-20T15:22:09.141Z,38.17
2024-02-20T15:27:04.040Z,36.10
2024-02-20T15:32:01.426Z,35.03
2024-02-20T15:36:57.041Z,38.88
2024-02-20T15:41:58.317Z,35.90
2024-02-20T15:46:56.730Z,38.88
2024-02-20T15:51:50.403Z,39.75
2024-02-20T15:56:48.790Z,37.70
2024-02-20T16:06:41.805Z,36.75
2024-02-20T16:11:48.197Z,34.20
2024-02-20T16:16:55.362Z,37.45
2024-02-20T16:22:00.153Z,46.17
2024-02-20T16:27:05.022Z,36.45
2024-02-20T16:31:59.789Z,35.75
2024-02-20T16:37:00.868Z,36.97
2024-02-20T16:41:55.254Z,37.50
2024-02-20T16:46:48.989Z,47.58
2024-02-20T16:51:42.930Z,36.65
2024-02-20T16:56:37.574Z,38.55
2024-02-20T17:01:32.140Z,38.42
2024-02-20T17:06:26.696Z,40.67
2024-02-20T17:11:20.779Z,42.08
2024-02-20T17:16:14.952Z,45.80
2024-02-20T17:21:13.056Z,52.25
2024-02-20T17:26:07.488Z,49.67
2024-02-20T17:31:05.855Z,50.30
2024-02-20T17:36:02.868Z,44.00
2024-02-20T17:40:57.056Z,47.35
2024-02-20T17:45:51.589Z,55.20
2024-02-20T17:50:45.950Z,62.15
2024-02-20T17:55:39.836Z,51.20
2024-02-20T18:00:34.144Z,46.60
2024-02-20T18:05:28.648Z,46.60
2024-02-20T18:10:23.153Z,45.67
2024-02-20T18:15:16.499Z,47.92
2024-02-20T18:20:17.140Z,47.08
2024-02-20T18:25:12.250Z,51.25
2024-02-20T18:30:11.876Z,47.97
2024-02-20T18:35:07.764Z,48.97
2024-02-20T18:40:02.068Z,53.53
2024-02-20T18:44:56.756Z,49.90
2024-02-20T18:49:54.184Z,52.92
2024-02-20T18:54:51.339Z,51.55
2024-02-20T18:59:45.116Z,49.75
2024-02-20T19:04:40.171Z,50.08
2024-02-20T19:09:33.938Z,50.55
2024-02-20T19:14:28.019Z,48.10
2024-02-20T19:19:22.304Z,48.08
2024-02-20T19:24:16.786Z,51.17
2024-02-20T19:29:11.190Z,52.22
2024-02-20T19:34:04.929Z,53.63
2024-02-20T19:38:59.381Z,57.28
2024-02-20T19:43:54.832Z,58.95
2024-02-20T19:48:50.008Z,54.97
2024-02-20T19:53:44.347Z,54.25
2024-02-20T19:58:38.872Z,52.58
2024-02-20T20:03:32.726Z,55.22
2024-02-20T20:08:27.014Z,55.50
2024-02-20T20:13:20.805Z,56.33
2024-02-20T20:18:15.760Z,46.97
2024-02-20T20:23:09.378Z,41.97
2024-02-20T20:28:03.830Z,40.33
2024-02-20T20:32:57.813Z,45.47
2024-02-20T20:37:53.992Z,39.08
2024-02-20T20:42:48.560Z,40.33
2024-02-20T20:47:43.332Z,39.88
2024-02-20T20:52:36.958Z,44.63
2024-02-20T20:57:30.537Z,38.85
2024-02-20T21:02:25.009Z,38.58
2024-02-20T21:07:19.570Z,39.10
2024-02-20T21:12:13.872Z,39.08
2024-02-20T21:17:08.103Z,42.50
2024-02-20T21:22:01.552Z,45.05
2024-02-20T21:26:59.824Z,41.30
2024-02-20T21:31:53.940Z,43.05
2024-02-20T21:36:48.349Z,42.47
2024-02-20T21:41:42.331Z,42.63
2024-02-20T21:46:35.979Z,37.63
2024-02-20T21:51:30.801Z,37.25
2024-02-20T21:56:24.732Z,38.60
2024-02-20T22:01:18.941Z,38.80
2024-02-20T22:06:16.970Z,39.63
2024-02-20T22:11:11.987Z,39.88
2024-02-20T22:16:08.158Z,38.17
2024-02-20T22:21:02.627Z,37.40
2024-02-20T22:25:57.522Z,39.38
2024-02-20T22:30:52.228Z,36.40
2024-02-20T22:35:46.029Z,37.60
2024-02-20T22:40:40.264Z,34.78
2024-02-20T22:45:46.615Z,37.20
2024-02-20T22:50:40.228Z,35.47
2024-02-20T22:55:33.218Z,35.70
2024-02-20T23:00:27.474Z,37.47
2024-02-20T23:05:22.246Z,36.42
2024-02-20T23:10:16.713Z,38.72
2024-02-20T23:15:12.752Z,42.35
2024-02-20T23:20:09.935Z,42.20
2024-02-20T23:25:04.508Z,38.03
2024-02-20T23:29:58.853Z,41.83
2024-02-20T23:34:54.138Z,45.78
2024-02-20T23:39:47.987Z,51.30
2024-02-20T23:44:41.877Z,50.60
2024-02-20T23:49:36.388Z,42.58
2024-02-20T23:54:31.447Z,41.05
2024-02-20T23:59:25.959Z,38.20
